Terminal Aerodrome Forecast
Issued by NWS

Home | Current Version | Previous Version | Text Only | Print | Product List | Glossary On
Versions: 1 2 3 4 5 6 7 8 9 10 11 12 13 14 15 16 17 18 19 20 21 22 23 24
000
FTUS43 KSGF 210800 AAA
TAFJLN
TAF AMD
KJLN 210846Z 2109/2206 09007KT P6SM OVC015
     FM211400 12010KT P6SM OVC012
      TEMPO 2114/2118 4SM -RADZ
     FM211800 15012G17KT P6SM BKN012 OVC020
     FM212300 16013KT 5SM -DZ BR OVC008 WS019/20040KT=

USA.gov is the U.S. government's official web portal to all federal, state and local government web resources and services.